Time;durP1;ratioP1;P1;durP2;ratioP2;P2;SDS_P1;SDS_P2;PMS_P1;PMS_P2;Temp;Humidity;BMP_temperature;BMP_pressure;BME280_temperature;BME280_humidity;BME280_pressure;Samples;Min_cycle;Max_cycle;Signal;HPM_P1;HPM_P2
2022/12/21 00:01:27;;;;;;;0.80;0.80;;;14.10;68.90;;;;;;4988709;28;20570;-18
2022/12/21 00:03:57;;;;;;;0.70;0.70;;;14.10;68.90;;;;;;4989506;28;20042;-20
2022/12/21 00:06:23;;;;;;;0.93;0.93;;;14.10;68.80;;;;;;4989416;28;20042;-21
2022/12/21 00:08:50;;;;;;;0.90;0.90;;;14.10;69.70;;;;;;4989594;28;20046;-21
2022/12/21 00:11:16;;;;;;;0.90;0.90;;;14.10;68.90;;;;;;4989260;28;20455;-28
2022/12/21 00:13:42;;;;;;;0.90;0.90;;;14.10;68.90;;;;;;4987348;28;20108;-20
2022/12/21 00:16:12;;;;;;;0.70;0.70;;;14.10;68.80;;;;;;4988699;28;20053;-20
2022/12/21 00:18:38;;;;;;;0.85;0.85;;;14.10;68.80;;;;;;4988503;28;20046;-30
2022/12/21 00:21:13;;;;;;;0.70;0.70;;;14.00;68.90;;;;;;4988844;28;20462;-21
2022/12/21 00:23:39;;;;;;;0.85;0.85;;;14.10;68.80;;;;;;4986745;28;20042;-27
2022/12/21 00:26:05;;;;;;;0.80;0.80;;;14.00;68.90;;;;;;4987374;28;20032;-20
2022/12/21 00:28:31;;;;;;;0.80;0.80;;;14.10;68.90;;;;;;4987665;28;20065;-20
2022/12/21 00:31:06;;;;;;;0.98;0.98;;;14.10;68.80;;;;;;4988170;28;20128;-25
2022/12/21 00:33:32;;;;;;;0.73;0.73;;;14.00;68.80;;;;;;4987789;28;20061;-25
2022/12/21 00:36:00;;;;;;;0.60;0.55;;;14.00;68.80;;;;;;4983699;28;20038;-21
2022/12/21 00:38:26;;;;;;;0.70;0.70;;;14.00;69.60;;;;;;4987773;28;20346;-20
2022/12/21 00:40:59;;;;;;;0.75;0.75;;;14.10;68.80;;;;;;4988370;28;20046;-21
2022/12/21 00:43:32;;;;;;;0.70;0.70;;;14.10;68.60;;;;;;5069613;27;20476;-21
2022/12/21 00:45:58;;;;;;;0.82;0.82;;;14.10;69.60;;;;;;5084540;28;20067;-23
2022/12/21 00:48:27;;;;;;;0.80;0.80;;;14.10;68.70;;;;;;5084985;28;20455;-20
2022/12/21 00:50:53;;;;;;;0.47;0.47;;;14.00;68.80;;;;;;5084719;28;20032;-21
2022/12/21 00:53:19;;;;;;;0.77;0.68;;;14.10;69.60;;;;;;5084148;28;20071;-20
2022/12/21 00:55:58;;;;;;;0.90;0.90;;;14.10;68.80;;;;;;5083455;28;20397;-47
2022/12/21 00:58:24;;;;;;;1.05;1.05;;;14.00;68.70;;;;;;5084438;28;20436;-46
2022/12/21 01:00:52;;;;;;;0.65;0.65;;;14.00;68.80;;;;;;5084214;28;20728;-47
2022/12/21 01:03:17;;;;;;;0.80;0.80;;;14.00;69.50;;;;;;5084724;28;20494;-48
2022/12/21 01:05:48;;;;;;;0.65;0.65;;;14.10;68.80;;;;;;5084447;28;20126;-57
2022/12/21 01:08:14;;;;;;;0.75;0.75;;;14.10;68.70;;;;;;5084420;28;20055;-61
2022/12/21 01:10:40;;;;;;;0.93;0.93;;;14.10;68.80;;;;;;5083921;28;20064;-51
2022/12/21 01:13:05;;;;;;;2.15;0.90;;;14.00;68.70;;;;;;5085766;28;20060;-61
2022/12/21 01:15:31;;;;;;;0.82;0.82;;;14.00;68.70;;;;;;5084205;28;20068;-62
2022/12/21 01:17:56;;;;;;;0.70;0.70;;;14.00;68.70;;;;;;5084884;28;20081;-55
2022/12/21 01:20:22;;;;;;;0.90;0.90;;;14.00;68.60;;;;;;5085387;28;20040;-48
2022/12/21 01:22:48;;;;;;;0.90;0.90;;;14.00;68.80;;;;;;5083902;28;20060;-61
2022/12/21 01:25:13;;;;;;;0.80;0.80;;;14.00;68.80;;;;;;5084925;28;20040;-61
2022/12/21 01:27:39;;;;;;;0.90;0.90;;;14.00;68.90;;;;;;5084593;28;20115;-60
2022/12/21 01:30:05;;;;;;;0.90;0.90;;;14.00;68.70;;;;;;5083836;28;20116;-60
2022/12/21 01:32:31;;;;;;;0.80;0.80;;;14.00;68.70;;;;;;5083949;28;20052;-55
2022/12/21 01:34:56;;;;;;;0.80;0.80;;;14.00;68.80;;;;;;5084675;28;20115;-56
2022/12/21 01:37:23;;;;;;;0.80;0.80;;;14.00;68.60;;;;;;5083713;28;20481;-59
2022/12/21 01:39:48;;;;;;;0.98;0.98;;;14.00;68.60;;;;;;5083662;28;20044;-58
2022/12/21 01:42:14;;;;;;;0.80;0.80;;;14.00;68.70;;;;;;5084247;28;20052;-58
2022/12/21 01:45:02;;;;;;;1.00;1.00;;;14.00;68.70;;;;;;5083428;28;20493;-53
2022/12/21 01:47:40;;;;;;;0.73;0.73;;;14.00;68.60;;;;;;5080581;28;20093;-34
2022/12/21 01:50:39;;;;;;;0.75;0.75;;;14.00;68.60;;;;;;5098723;28;20040;-48
2022/12/21 01:53:32;;;;;;;0.70;0.70;;;14.00;68.60;;;;;;5079782;28;20489;-47
2022/12/21 01:55:59;;;;;;;0.90;0.90;;;14.10;68.60;;;;;;5064889;28;20044;-47
2022/12/21 01:58:26;;;;;;;0.90;0.90;;;14.00;69.40;;;;;;5069035;28;20515;-47
2022/12/21 02:00:52;;;;;;;0.93;0.93;;;14.00;68.50;;;;;;5085346;28;20048;-47
2022/12/21 02:03:19;;;;;;;0.90;0.90;;;14.10;68.50;;;;;;5070953;28;20421;-47
2022/12/21 02:05:53;;;;;;;0.80;0.80;;;14.00;68.50;;;;;;5084415;28;20064;-48
2022/12/21 02:08:18;;;;;;;0.90;0.90;;;14.10;68.50;;;;;;5082744;28;20040;-47
2022/12/21 02:10:44;;;;;;;0.70;0.70;;;14.00;68.50;;;;;;5068716;28;20033;-56
2022/12/21 02:13:13;;;;;;;0.90;0.90;;;14.00;68.50;;;;;;5068420;28;20181;-58
2022/12/21 02:15:39;;;;;;;0.70;0.70;;;14.00;68.50;;;;;;5068518;28;20406;-49
2022/12/21 02:18:17;;;;;;;0.90;0.90;;;14.00;68.50;;;;;;5070372;28;20051;-52
2022/12/21 02:21:01;;;;;;;0.68;0.68;;;14.00;68.40;;;;;;5064245;28;20516;-48
2022/12/21 02:23:47;;;;;;;0.60;0.60;;;14.00;68.40;;;;;;5069508;28;20044;-49
2022/12/21 02:26:22;;;;;;;0.65;0.65;;;14.00;68.50;;;;;;5069189;28;20046;-59
2022/12/21 02:28:53;;;;;;;;;;;14.00;68.40;;;;;;5068890;28;20047;-45
2022/12/21 02:31:32;;;;;;;1.45;0.88;;;14.00;68.50;;;;;;5066309;28;19964;-49
2022/12/21 02:34:26;;;;;;;0.80;0.80;;;14.00;68.50;;;;;;5084355;28;20528;-59
2022/12/21 02:37:09;;;;;;;0.70;0.70;;;14.00;68.50;;;;;;5067464;28;20416;-61
2022/12/21 02:39:47;;;;;;;0.70;0.70;;;14.00;68.50;;;;;;5067661;28;20045;-55
2022/12/21 02:45:50;;;;;;;0.43;0.43;;;14.00;68.40;;;;;;5068580;28;20047;-48
2022/12/21 02:48:45;;;;;;;0.80;0.80;;;14.00;68.40;;;;;;5057039;28;20032;-46
2022/12/21 02:51:14;;;;;;;0.70;0.70;;;14.00;68.30;;;;;;5078181;28;20046;-54
2022/12/21 02:53:39;;;;;;;0.77;0.77;;;14.00;68.30;;;;;;5067842;28;20291;-49
2022/12/21 02:56:12;;;;;;;1.00;1.00;;;14.00;69.10;;;;;;5067810;28;20648;-58
2022/12/21 02:58:38;;;;;;;0.80;0.80;;;14.00;68.40;;;;;;5069197;28;20107;-58
2022/12/21 03:01:12;;;;;;;0.75;0.75;;;14.00;68.20;;;;;;5068793;28;20586;-58
2022/12/21 03:03:50;;;;;;;0.68;0.68;;;14.00;68.20;;;;;;5065829;28;20060;-43
2022/12/21 03:06:52;;;;;;;0.80;0.80;;;14.00;68.30;;;;;;5067907;28;20524;-57
2022/12/21 03:09:45;;;;;;;0.60;0.60;;;14.00;68.10;;;;;;5066233;28;20040;-50
2022/12/21 03:12:35;;;;;;;0.65;0.65;;;14.00;68.20;;;;;;5066794;28;20502;-58
2022/12/21 03:15:20;;;;;;;0.80;0.80;;;13.90;68.10;;;;;;5081541;28;20068;-60
2022/12/21 03:18:05;;;;;;;0.68;0.68;;;14.00;68.10;;;;;;5083497;28;20098;-56
2022/12/21 03:20:32;;;;;;;0.73;0.73;;;14.00;68.10;;;;;;5068294;28;20024;-62
2022/12/21 03:23:01;;;;;;;0.68;0.60;;;14.00;68.10;;;;;;5068406;28;20049;-55
2022/12/21 03:25:41;;;;;;;0.90;0.90;;;14.00;68.00;;;;;;5068350;28;20046;-59
2022/12/21 03:28:11;;;;;;;0.60;0.52;;;14.00;68.10;;;;;;5052613;28;20055;-56
2022/12/21 03:30:45;;;;;;;0.45;0.45;;;14.00;68.00;;;;;;5065959;28;20049;-60
2022/12/21 03:33:14;;;;;;;;;;;14.00;68.10;;;;;;5066477;28;20041;-61
2022/12/21 03:35:44;;;;;;;0.63;0.63;;;14.00;68.10;;;;;;5066559;28;19928;-44
2022/12/21 03:38:14;;;;;;;0.50;0.50;;;14.00;68.10;;;;;;5066722;28;20041;-49
2022/12/21 03:40:40;;;;;;;0.70;0.70;;;13.90;68.00;;;;;;5066084;28;20052;-48
2022/12/21 03:43:09;;;;;;;0.57;0.57;;;14.00;68.00;;;;;;5066794;28;20049;-49
2022/12/21 03:45:41;;;;;;;0.70;0.70;;;14.00;68.00;;;;;;5065905;28;20178;-45
2022/12/21 03:48:34;;;;;;;1.00;0.70;;;13.90;68.00;;;;;;5067432;28;20066;-47
2022/12/21 03:51:03;;;;;;;0.60;0.60;;;14.00;67.90;;;;;;5062253;28;20093;-47
2022/12/21 03:53:40;;;;;;;0.60;0.60;;;14.00;67.90;;;;;;5066880;28;20060;-47
2022/12/21 03:56:07;;;;;;;0.60;0.60;;;14.00;67.90;;;;;;5065850;28;20044;-48
2022/12/21 03:58:32;;;;;;;0.30;0.30;;;13.90;68.00;;;;;;5066647;28;20037;-50
2022/12/21 04:01:18;;;;;;;0.50;0.50;;;13.90;67.90;;;;;;5066234;28;20494;-47
2022/12/21 04:03:45;;;;;;;0.55;0.55;;;13.90;67.90;;;;;;5082884;28;20120;-48
2022/12/21 04:06:15;;;;;;;0.47;0.47;;;14.00;67.90;;;;;;5082756;28;20032;-47
2022/12/21 04:08:40;;;;;;;0.65;0.60;;;13.90;68.70;;;;;;5066095;28;20040;-53
2022/12/21 04:11:06;;;;;;;0.70;0.70;;;13.90;67.90;;;;;;5067921;28;20041;-47
2022/12/21 04:13:34;;;;;;;0.90;0.90;;;13.90;67.90;;;;;;5067960;28;20085;-53
2022/12/21 04:16:05;;;;;;;1.63;0.70;;;13.90;67.90;;;;;;5067225;28;20067;-46
2022/12/21 04:21:17;;;;;;;0.50;0.50;;;13.90;68.00;;;;;;5066160;28;20610;-58
2022/12/21 04:29:11;;;;;;;0.57;0.57;;;13.90;67.90;;;;;;5077849;28;20118;-43
2022/12/21 04:31:36;;;;;;;0.80;0.80;;;13.90;67.90;;;;;;5067484;28;20505;-47
2022/12/21 04:34:02;;;;;;;0.50;0.50;;;13.90;67.80;;;;;;5065882;28;20056;-46
2022/12/21 04:39:11;;;;;;;0.50;0.50;;;13.90;67.90;;;;;;5063785;28;20106;-46
2022/12/21 04:41:37;;;;;;;0.50;0.50;;;13.90;67.90;;;;;;5067958;28;20060;-47
2022/12/21 04:44:03;;;;;;;0.75;0.70;;;13.90;68.00;;;;;;5066508;28;20130;-47
2022/12/21 04:46:28;;;;;;;1.33;0.80;;;13.90;68.00;;;;;;5067772;28;20566;-46
2022/12/21 04:48:54;;;;;;;0.70;0.70;;;13.90;68.00;;;;;;5066720;28;20463;-45
2022/12/21 04:51:21;;;;;;;0.75;0.75;;;13.90;68.00;;;;;;5066657;28;20123;-47
2022/12/21 04:53:47;;;;;;;0.68;0.68;;;13.90;68.00;;;;;;5066693;28;20044;-48
2022/12/21 04:56:13;;;;;;;0.65;0.65;;;13.90;68.00;;;;;;5067602;28;20044;-47
2022/12/21 04:58:38;;;;;;;0.70;0.70;;;13.90;68.00;;;;;;5067640;28;20047;-47
2022/12/21 05:01:11;;;;;;;0.50;0.50;;;13.90;68.00;;;;;;5066164;28;20127;-46
2022/12/21 05:03:37;;;;;;;0.65;0.65;;;13.90;68.00;;;;;;5066674;28;20530;-47
2022/12/21 05:06:02;;;;;;;0.75;0.75;;;13.90;67.90;;;;;;5082440;28;20151;-48
2022/12/21 05:08:28;;;;;;;0.60;0.60;;;13.90;67.90;;;;;;5066878;28;20040;-49
2022/12/21 05:10:54;;;;;;;0.90;0.50;;;13.90;67.90;;;;;;5066911;28;20079;-47
2022/12/21 05:13:19;;;;;;;0.60;0.60;;;13.90;68.00;;;;;;5067169;28;20049;-48
2022/12/21 05:15:45;;;;;;;0.77;0.50;;;13.90;68.10;;;;;;5066518;28;20139;-48
2022/12/21 05:18:11;;;;;;;0.50;0.50;;;13.90;68.00;;;;;;5067256;28;20063;-47
2022/12/21 05:20:37;;;;;;;0.60;0.60;;;13.90;67.90;;;;;;5067215;28;20033;-48
2022/12/21 05:23:02;;;;;;;0.50;0.50;;;13.90;68.00;;;;;;5065887;28;20056;-47
2022/12/21 05:25:28;;;;;;;0.52;0.52;;;13.90;67.90;;;;;;5066561;28;20032;-47
2022/12/21 05:27:53;;;;;;;0.40;0.40;;;13.90;67.90;;;;;;5067225;28;20049;-48
2022/12/21 05:30:19;;;;;;;0.57;0.57;;;13.90;67.90;;;;;;5069687;28;20535;-48
2022/12/21 05:32:44;;;;;;;0.68;0.50;;;13.90;67.90;;;;;;5069638;28;20041;-48
2022/12/21 05:35:10;;;;;;;0.50;0.50;;;13.90;68.00;;;;;;5069934;28;20068;-46
2022/12/21 05:37:36;;;;;;;0.45;0.45;;;13.90;68.00;;;;;;5071268;28;20098;-47
2022/12/21 05:40:01;;;;;;;0.32;0.30;;;13.90;68.00;;;;;;5069929;28;20424;-49
2022/12/21 05:42:27;;;;;;;0.73;0.40;;;13.90;68.90;;;;;;5070163;28;20099;-48
2022/12/21 05:44:52;;;;;;;0.50;0.50;;;13.90;68.10;;;;;;5069998;28;20051;-47
2022/12/21 05:47:18;;;;;;;0.50;0.50;;;13.90;68.00;;;;;;5070165;28;20044;-47
2022/12/21 05:49:43;;;;;;;0.40;0.40;;;13.90;68.10;;;;;;5069712;28;20044;-46
2022/12/21 05:52:09;;;;;;;0.50;0.43;;;13.90;68.00;;;;;;5070302;28;20056;-47
2022/12/21 05:54:34;;;;;;;0.50;0.50;;;13.90;68.10;;;;;;5070394;28;20041;-47
2022/12/21 05:57:00;;;;;;;0.60;0.60;;;13.90;68.10;;;;;;5069833;28;20044;-48
2022/12/21 05:59:26;;;;;;;0.73;0.73;;;13.90;68.10;;;;;;5069325;28;20549;-47
2022/12/21 06:01:51;;;;;;;0.60;0.60;;;13.90;68.10;;;;;;5068716;28;20076;-49
2022/12/21 06:04:17;;;;;;;0.47;0.47;;;13.90;68.10;;;;;;5069596;28;20052;-48
2022/12/21 06:06:44;;;;;;;0.40;0.40;;;13.90;68.00;;;;;;5070459;28;20051;-47
2022/12/21 06:09:10;;;;;;;0.40;0.40;;;13.90;68.00;;;;;;5083806;28;20048;-48
2022/12/21 06:11:35;;;;;;;0.70;0.70;;;13.90;68.00;;;;;;5070152;28;20672;-46
2022/12/21 06:14:01;;;;;;;0.57;0.57;;;13.90;68.10;;;;;;5069440;28;20036;-47
2022/12/21 06:16:26;;;;;;;0.30;0.30;;;13.90;68.00;;;;;;5068803;28;20032;-47
2022/12/21 06:18:53;;;;;;;0.30;0.30;;;13.90;68.00;;;;;;5068193;28;20135;-48
2022/12/21 06:21:19;;;;;;;0.50;0.50;;;13.90;68.10;;;;;;5070045;28;20508;-46
2022/12/21 06:23:45;;;;;;;0.40;0.40;;;13.90;68.90;;;;;;5068831;28;20044;-38
2022/12/21 06:26:12;;;;;;;0.40;0.40;;;13.90;68.00;;;;;;5069726;28;20033;-51
2022/12/21 06:28:37;;;;;;;0.80;0.50;;;13.90;68.10;;;;;;5085369;28;20504;-48
2022/12/21 06:31:10;;;;;;;0.40;0.40;;;13.90;68.00;;;;;;5069341;28;20052;-49
2022/12/21 06:33:36;;;;;;;0.30;0.30;;;13.90;68.10;;;;;;5069741;28;20036;-42
2022/12/21 06:36:02;;;;;;;0.43;0.43;;;13.90;68.00;;;;;;5084030;28;20528;-56
2022/12/21 06:38:28;;;;;;;0.35;0.35;;;13.90;68.80;;;;;;5070219;28;20086;-46
2022/12/21 06:40:57;;;;;;;0.40;0.40;;;13.90;68.80;;;;;;5067004;28;20115;-52
2022/12/21 06:43:24;;;;;;;0.40;0.40;;;13.90;68.00;;;;;;5068776;28;20072;-54
2022/12/21 06:45:57;;;;;;;0.40;0.35;;;13.90;68.00;;;;;;5068805;28;20101;-47
2022/12/21 06:48:23;;;;;;;0.40;0.30;;;13.90;67.90;;;;;;5068999;28;20098;-46
2022/12/21 06:50:53;;;;;;;0.30;0.30;;;13.90;68.00;;;;;;5067177;28;20097;-46
2022/12/21 06:53:20;;;;;;;0.40;0.40;;;13.90;68.00;;;;;;5068368;28;20130;-48
2022/12/21 06:55:45;;;;;;;0.32;0.32;;;13.90;68.10;;;;;;5069507;28;20028;-56
2022/12/21 06:58:11;;;;;;;0.40;0.40;;;13.90;68.10;;;;;;5067866;28;20407;-58
2022/12/21 07:00:37;;;;;;;0.70;0.50;;;13.90;68.10;;;;;;5068526;28;20040;-61
2022/12/21 07:03:02;;;;;;;0.30;0.30;;;13.90;68.20;;;;;;5080880;28;20408;-57
2022/12/21 07:05:29;;;;;;;0.50;0.50;;;13.90;68.10;;;;;;5068508;28;20512;-62
2022/12/21 07:07:54;;;;;;;0.50;0.50;;;13.90;68.10;;;;;;5068609;28;20066;-54
2022/12/21 07:10:20;;;;;;;0.30;0.30;;;13.90;68.10;;;;;;5067932;28;20114;-54
2022/12/21 07:12:45;;;;;;;0.40;0.40;;;13.90;68.20;;;;;;5068841;28;20036;-56
2022/12/21 07:15:11;;;;;;;0.40;0.40;;;13.90;68.20;;;;;;5066091;28;21210;-60
2022/12/21 07:17:36;;;;;;;0.40;0.40;;;13.90;67.90;;;;;;5068764;28;20064;-55
2022/12/21 07:20:02;;;;;;;0.30;0.30;;;13.90;68.20;;;;;;5068030;28;20032;-63
2022/12/21 07:22:28;;;;;;;0.30;0.30;;;13.90;68.20;;;;;;5067051;28;20041;-59
2022/12/21 07:24:54;;;;;;;0.47;0.47;;;13.80;69.10;;;;;;5067440;28;20178;-59
2022/12/21 07:27:19;;;;;;;0.65;0.50;;;13.80;68.10;;;;;;5068094;28;20059;-62
2022/12/21 07:29:45;;;;;;;0.52;0.50;;;13.80;68.20;;;;;;5068894;28;20052;-60
2022/12/21 07:32:10;;;;;;;0.45;0.45;;;13.90;68.30;;;;;;5068179;28;20516;-64
2022/12/21 07:34:36;;;;;;;0.40;0.40;;;13.90;68.30;;;;;;5068941;28;20044;-54
2022/12/21 07:37:01;;;;;;;0.55;0.50;;;13.90;68.20;;;;;;5067312;28;20044;-53
2022/12/21 07:39:27;;;;;;;0.40;0.40;;;13.90;68.20;;;;;;5069202;28;20040;-50
2022/12/21 07:41:52;;;;;;;0.50;0.50;;;13.90;68.30;;;;;;5066842;28;20032;-55
2022/12/21 07:44:18;;;;;;;0.40;0.40;;;13.90;68.20;;;;;;5067977;28;20450;-45
2022/12/21 07:46:44;;;;;;;0.50;0.50;;;13.90;68.30;;;;;;5068526;28;20060;-47
2022/12/21 07:49:09;;;;;;;0.50;0.50;;;13.90;68.30;;;;;;5067545;28;20068;-59
2022/12/21 07:51:35;;;;;;;0.50;0.47;;;13.90;68.20;;;;;;5068007;28;20025;-50
2022/12/21 07:54:00;;;;;;;0.50;0.50;;;13.90;68.10;;;;;;5067732;28;20544;-56
2022/12/21 07:56:26;;;;;;;0.40;0.40;;;13.90;69.00;;;;;;5068384;28;20131;-43
2022/12/21 07:58:51;;;;;;;0.30;0.30;;;13.90;68.20;;;;;;5063959;28;20393;-37
2022/12/21 08:01:17;;;;;;;0.45;0.40;;;13.90;68.30;;;;;;5064570;28;20036;-48
2022/12/21 08:03:44;;;;;;;0.73;0.38;;;13.90;68.20;;;;;;5067293;28;20120;-57
2022/12/21 08:06:10;;;;;;;0.38;0.38;;;13.90;68.20;;;;;;5067694;28;20056;-58
2022/12/21 08:08:36;;;;;;;0.60;0.47;;;13.90;68.10;;;;;;5067533;28;20044;-63
2022/12/21 08:11:02;;;;;;;0.40;0.40;;;13.90;68.20;;;;;;5083452;28;20041;-60
2022/12/21 08:13:29;;;;;;;0.40;0.40;;;13.90;68.20;;;;;;5067835;28;20040;-59
2022/12/21 08:16:01;;;;;;;0.40;0.40;;;13.90;68.30;;;;;;5065324;28;20040;-59
2022/12/21 08:18:26;;;;;;;0.50;0.50;;;13.90;68.40;;;;;;5065388;28;20040;-60
2022/12/21 08:20:54;;;;;;;0.30;0.30;;;13.90;68.40;;;;;;5067041;28;20578;-49
2022/12/21 08:23:19;;;;;;;0.40;0.40;;;13.90;68.30;;;;;;5066644;28;20171;-62
2022/12/21 08:25:45;;;;;;;0.28;0.28;;;13.80;68.40;;;;;;5067626;28;20175;-53
2022/12/21 08:28:12;;;;;;;0.35;0.30;;;13.90;68.40;;;;;;5067268;28;20052;-59
2022/12/21 08:30:38;;;;;;;0.50;0.50;;;13.80;68.40;;;;;;5068546;28;20055;-60
2022/12/21 08:33:03;;;;;;;0.40;0.40;;;13.80;68.60;;;;;;5067871;28;20040;-63
2022/12/21 08:35:32;;;;;;;0.30;0.30;;;13.80;68.50;;;;;;5068278;28;20421;-58
2022/12/21 08:37:58;;;;;;;0.20;0.20;;;13.80;68.40;;;;;;5067372;28;20037;-61
2022/12/21 08:40:23;;;;;;;0.30;0.30;;;13.80;69.00;;;;;;5068320;28;20417;-59
2022/12/21 08:42:49;;;;;;;0.70;0.22;;;13.90;68.40;;;;;;5067457;28;20136;-64
2022/12/21 08:45:14;;;;;;;0.30;0.20;;;13.90;68.30;;;;;;5066574;28;20134;-58
2022/12/21 08:47:40;;;;;;;0.75;0.30;;;13.90;68.40;;;;;;5067754;28;20429;-60
2022/12/21 08:50:06;;;;;;;0.30;0.30;;;13.90;68.20;;;;;;5066516;28;20396;-57
2022/12/21 08:52:32;;;;;;;0.28;0.28;;;13.90;68.20;;;;;;5067098;28;20048;-62
2022/12/21 08:54:57;;;;;;;0.38;0.30;;;13.90;68.40;;;;;;5067146;28;20037;-55
2022/12/21 08:57:23;;;;;;;0.30;0.30;;;13.80;68.40;;;;;;5067236;28;20053;-59
2022/12/21 08:59:49;;;;;;;0.30;0.30;;;13.90;68.20;;;;;;5067489;28;20036;-56
2022/12/21 09:02:15;;;;;;;0.20;0.20;;;13.90;68.40;;;;;;5066844;28;20147;-62
2022/12/21 09:04:40;;;;;;;0.30;0.30;;;13.90;68.50;;;;;;5070509;28;20091;-50
2022/12/21 09:07:06;;;;;;;0.30;0.30;;;13.90;68.40;;;;;;5070919;28;20075;-60
2022/12/21 09:09:33;;;;;;;0.25;0.25;;;13.90;68.40;;;;;;5070666;28;20040;-55
2022/12/21 09:11:59;;;;;;;0.47;0.40;;;13.90;68.50;;;;;;5070993;28;20515;-56
2022/12/21 09:14:25;;;;;;;0.20;0.20;;;13.90;68.40;;;;;;5071468;28;20489;-54
2022/12/21 09:16:51;;;;;;;0.57;0.40;;;13.90;69.20;;;;;;5069272;28;20511;-60
2022/12/21 09:19:16;;;;;;;0.40;0.40;;;13.90;68.30;;;;;;5070876;28;20123;-59
2022/12/21 09:21:42;;;;;;;0.20;0.17;;;13.90;68.40;;;;;;5071193;28;20043;-59
2022/12/21 09:24:08;;;;;;;0.20;0.20;;;13.90;68.50;;;;;;5070527;28;20119;-54
2022/12/21 09:26:33;;;;;;;0.30;0.30;;;13.80;68.40;;;;;;5070658;28;20110;-53
2022/12/21 09:28:59;;;;;;;0.20;0.20;;;13.80;68.50;;;;;;5068678;28;20067;-59
2022/12/21 09:31:24;;;;;;;0.20;0.20;;;13.90;68.60;;;;;;5070908;28;20044;-60
2022/12/21 09:33:50;;;;;;;0.25;0.20;;;13.90;68.70;;;;;;5071144;28;20059;-56
2022/12/21 09:36:16;;;;;;;0.20;0.20;;;13.90;68.40;;;;;;5070337;28;20462;-59
2022/12/21 09:38:42;;;;;;;0.20;0.20;;;13.90;68.80;;;;;;5070760;28;20140;-59
2022/12/21 09:41:29;;;;;;;0.35;0.30;;;13.90;68.20;;;;;;5070474;28;20055;-59
2022/12/21 09:44:19;;;;;;;0.20;0.20;;;13.90;68.80;;;;;;5068801;28;20520;-52
2022/12/21 09:46:44;;;;;;;0.10;0.10;;;13.80;68.40;;;;;;5069600;28;20041;-56
2022/12/21 09:49:26;;;;;;;0.30;0.30;;;13.80;68.40;;;;;;5069200;28;20078;-53
2022/12/21 09:51:53;;;;;;;0.20;0.20;;;13.80;68.40;;;;;;5052129;28;20044;-62
2022/12/21 09:54:23;;;;;;;0.20;0.20;;;13.80;68.50;;;;;;5085682;28;20196;-55
2022/12/21 09:56:50;;;;;;;0.30;0.30;;;13.80;69.30;;;;;;5068199;28;20040;-54
2022/12/21 09:59:17;;;;;;;0.65;0.30;;;13.80;68.40;;;;;;5069926;28;20051;-56
2022/12/21 10:02:20;;;;;;;0.25;0.20;;;13.80;68.60;;;;;;5066733;28;20040;-43
2022/12/21 10:04:51;;;;;;;0.25;0.25;;;13.80;68.10;;;;;;5066471;28;20401;-54
2022/12/21 10:07:48;;;;;;;0.20;0.20;;;13.80;68.60;;;;;;5068696;28;20041;-63
2022/12/21 10:10:39;;;;;;;0.20;0.20;;;13.80;68.40;;;;;;5077970;28;20520;-63
2022/12/21 10:13:21;;;;;;;0.30;0.30;;;13.80;68.30;;;;;;5084376;28;20127;-59
2022/12/21 10:16:24;;;;;;;0.35;0.30;;;13.80;68.70;;;;;;5070154;28;20502;-58
2022/12/21 10:18:57;;;;;;;0.20;0.20;;;13.80;68.50;;;;;;5041826;28;20106;-51
2022/12/21 10:21:42;;;;;;;0.20;0.20;;;13.90;68.30;;;;;;5084809;28;20066;-59
2022/12/21 10:24:35;;;;;;;0.20;0.20;;;13.90;68.50;;;;;;5068881;28;20412;-55
2022/12/21 10:27:17;;;;;;;0.28;0.28;;;13.80;68.40;;;;;;5061043;28;20044;-62
2022/12/21 10:29:46;;;;;;;0.28;0.28;;;13.80;68.50;;;;;;5085433;28;20032;-55
2022/12/21 10:32:12;;;;;;;0.30;0.30;;;13.80;68.40;;;;;;5066668;28;20044;-55
2022/12/21 10:34:43;;;;;;;0.20;0.20;;;13.80;68.80;;;;;;5085231;28;20128;-61
2022/12/21 10:37:16;;;;;;;0.30;0.30;;;13.80;68.20;;;;;;5067305;28;20037;-46
2022/12/21 10:39:43;;;;;;;0.20;0.20;;;13.80;68.40;;;;;;5068736;28;20036;-60
2022/12/21 10:42:19;;;;;;;0.35;0.30;;;13.80;68.60;;;;;;5083597;28;20057;-52
2022/12/21 10:44:44;;;;;;;0.10;0.10;;;13.80;68.70;;;;;;5067358;28;20119;-63
2022/12/21 10:47:15;;;;;;;0.30;0.30;;;13.80;68.30;;;;;;5084256;28;20049;-60
2022/12/21 10:49:41;;;;;;;0.40;0.30;;;13.90;68.40;;;;;;5084775;28;20756;-59
2022/12/21 10:52:31;;;;;;;0.30;0.30;;;13.90;68.20;;;;;;5068189;28;20516;-55
2022/12/21 10:54:57;;;;;;;0.15;0.15;;;13.90;68.60;;;;;;5065511;28;20153;-60
2022/12/21 10:57:25;;;;;;;0.30;0.30;;;13.80;68.50;;;;;;5068985;28;20578;-60
2022/12/21 10:59:50;;;;;;;0.25;0.25;;;13.90;68.20;;;;;;5069290;28;20390;-61
2022/12/21 11:02:48;;;;;;;0.22;0.22;;;13.90;68.00;;;;;;5068861;28;20520;-59
2022/12/21 11:05:33;;;;;;;0.20;0.20;;;13.80;68.20;;;;;;5039196;28;20041;-62
2022/12/21 11:08:14;;;;;;;0.30;0.20;;;13.90;68.10;;;;;;5083702;28;20167;-58
2022/12/21 11:10:44;;;;;;;0.30;0.22;;;13.90;68.10;;;;;;5068198;28;20038;-61
2022/12/21 11:13:11;;;;;;;0.10;0.10;;;13.90;68.30;;;;;;5069399;28;20040;-58
2022/12/21 11:15:36;;;;;;;0.22;0.22;;;13.90;68.00;;;;;;5067531;28;20048;-56
2022/12/21 11:18:02;;;;;;;0.28;0.28;;;13.90;68.10;;;;;;5069115;28;20508;-47
2022/12/21 11:20:27;;;;;;;0.10;0.10;;;13.90;68.40;;;;;;5066160;28;20028;-59
2022/12/21 11:22:55;;;;;;;0.20;0.20;;;13.90;68.40;;;;;;5069870;28;20547;-62
2022/12/21 11:25:28;;;;;;;0.10;0.10;;;13.90;68.50;;;;;;5068506;28;20413;-58
2022/12/21 11:27:56;;;;;;;0.20;0.20;;;13.90;68.10;;;;;;5067136;28;20086;-61
2022/12/21 11:30:23;;;;;;;0.45;0.20;;;13.90;68.40;;;;;;5080732;28;20089;-58
2022/12/21 11:32:49;;;;;;;0.40;0.38;;;13.90;68.40;;;;;;5082505;28;20039;-60
2022/12/21 11:35:19;;;;;;;0.20;0.20;;;13.90;69.40;;;;;;5065389;28;20574;-61
2022/12/21 11:37:46;;;;;;;0.30;0.30;;;13.90;68.40;;;;;;5068682;28;20044;-58
2022/12/21 11:40:17;;;;;;;0.45;0.20;;;13.90;68.70;;;;;;5067173;28;20143;-55
2022/12/21 11:42:52;;;;;;;0.20;0.20;;;13.90;68.50;;;;;;5067729;28;20051;-47
2022/12/21 11:45:42;;;;;;;0.28;0.28;;;13.90;68.60;;;;;;5068094;28;20036;-61
2022/12/21 11:48:28;;;;;;;0.20;0.20;;;13.90;68.40;;;;;;5059809;28;20029;-58
2022/12/21 11:51:07;;;;;;;0.20;0.20;;;13.90;68.30;;;;;;5067764;28;20068;-57
2022/12/21 11:53:51;;;;;;;0.10;0.10;;;14.00;68.60;;;;;;5082112;28;20151;-60
2022/12/21 11:56:22;;;;;;;0.22;0.22;;;13.90;68.80;;;;;;5082863;28;20051;-57
2022/12/21 11:58:54;;;;;;;0.20;0.20;;;14.00;68.20;;;;;;5049402;28;20127;-62
2022/12/21 12:01:34;;;;;;;0.30;0.30;;;14.00;68.30;;;;;;5067612;28;20516;-57
2022/12/21 12:04:21;;;;;;;0.10;0.10;;;14.00;68.70;;;;;;5067309;28;20149;-49
2022/12/21 12:07:06;;;;;;;0.30;0.30;;;14.00;68.80;;;;;;5065089;28;20044;-50
2022/12/21 12:09:55;;;;;;;0.20;0.20;;;13.90;68.50;;;;;;5065173;28;20122;-63
2022/12/21 12:12:37;;;;;;;0.30;0.30;;;14.00;68.70;;;;;;5067164;28;20048;-59
2022/12/21 12:15:14;;;;;;;0.17;0.10;;;14.00;68.90;;;;;;5067746;28;20057;-58
2022/12/21 12:17:55;;;;;;;0.75;0.65;;;14.00;68.30;;;;;;5067396;28;20124;-61
2022/12/21 12:20:32;;;;;;;0.60;0.30;;;14.00;68.60;;;;;;5082498;28;20102;-59
2022/12/21 12:23:25;;;;;;;0.13;0.13;;;14.00;69.00;;;;;;5067809;28;20095;-63
2022/12/21 12:26:09;;;;;;;0.22;0.20;;;13.90;68.80;;;;;;5062939;28;20048;-56
2022/12/21 12:28:48;;;;;;;0.52;0.52;;;13.90;69.10;;;;;;5063242;28;20173;-57
2022/12/21 12:31:51;;;;;;;0.50;0.40;;;13.90;69.20;;;;;;5047319;28;20040;-51
2022/12/21 12:35:07;;;;;;;0.20;0.20;;;13.90;69.30;;;;;;5063126;28;20112;-62
2022/12/21 12:37:43;;;;;;;0.35;0.35;;;14.00;69.90;;;;;;5004334;28;20128;-62
2022/12/21 12:40:12;;;;;;;0.70;0.50;;;13.90;70.00;;;;;;4987897;28;20049;-58
2022/12/21 12:42:40;;;;;;;0.40;0.40;;;14.00;69.90;;;;;;4989049;28;20050;-58
2022/12/21 12:45:14;;;;;;;0.40;0.30;;;13.90;70.00;;;;;;5005644;28;20051;-60
2022/12/21 12:47:52;;;;;;;1.55;0.28;;;14.00;69.90;;;;;;4987774;28;20046;-59
2022/12/21 12:50:23;;;;;;;0.40;0.40;;;14.00;69.40;;;;;;5004896;28;20054;-62
2022/12/21 12:53:07;;;;;;;0.40;0.30;;;14.00;69.70;;;;;;5004910;28;20608;-52
2022/12/21 12:55:51;;;;;;;0.67;0.30;;;14.00;69.50;;;;;;4987622;28;20276;-16
2022/12/21 12:58:47;;;;;;;0.60;0.60;;;14.00;69.80;;;;;;5005383;28;20289;-15
2022/12/21 13:01:36;;;;;;;0.30;0.20;;;13.90;69.60;;;;;;5002131;28;20038;-15
2022/12/21 13:04:23;;;;;;;0.30;0.30;;;13.90;69.60;;;;;;4988655;28;20042;-16
2022/12/21 13:07:11;;;;;;;0.40;0.28;;;13.90;70.00;;;;;;5004954;28;20053;-17
2022/12/21 13:09:51;;;;;;;0.28;0.28;;;13.90;69.60;;;;;;4986561;28;20079;-14
2022/12/21 13:12:45;;;;;;;0.20;0.20;;;14.00;70.10;;;;;;5054069;28;20041;-15
2022/12/21 13:15:15;;;;;;;0.50;0.20;;;14.00;70.10;;;;;;5066205;28;20048;-16
2022/12/21 13:17:52;;;;;;;0.35;0.35;;;14.00;70.10;;;;;;5066061;28;20044;-20
2022/12/21 13:20:19;;;;;;;0.40;0.40;;;13.90;70.00;;;;;;5065224;28;20112;-14
2022/12/21 13:23:06;;;;;;;0.30;0.30;;;13.90;69.90;;;;;;5067197;28;20464;-14